sensor_id;sensor_type;location;lat;lon;timestamp;temperature;humidity
21163;DHT22;10739;52.198;20.908;2023-04-15T00:02:16;10.50;99.90
21163;DHT22;10739;52.198;20.908;2023-04-15T00:04:45;10.50;99.90
21163;DHT22;10739;52.198;20.908;2023-04-15T00:07:12;10.40;99.90
21163;DHT22;10739;52.198;20.908;2023-04-15T00:09:40;10.50;99.90
21163;DHT22;10739;52.198;20.908;2023-04-15T00:12:07;10.40;99.90
21163;DHT22;10739;52.198;20.908;2023-04-15T00:14:34;10.40;99.90
21163;DHT22;10739;52.198;20.908;2023-04-15T00:17:02;10.40;99.90
21163;DHT22;10739;52.198;20.908;2023-04-15T00:19:29;10.30;99.90
21163;DHT22;10739;52.198;20.908;2023-04-15T00:21:56;10.20;99.90
21163;DHT22;10739;52.198;20.908;2023-04-15T00:24:22;10.20;99.90
21163;DHT22;10739;52.198;20.908;2023-04-15T00:26:49;10.20;99.90
21163;DHT22;10739;52.198;20.908;2023-04-15T00:29:15;10.10;99.90
21163;DHT22;10739;52.198;20.908;2023-04-15T00:31:41;10.00;99.90
21163;DHT22;10739;52.198;20.908;2023-04-15T00:34:08;9.90;99.90
21163;DHT22;10739;52.198;20.908;2023-04-15T00:36:34;9.80;99.90
21163;DHT22;10739;52.198;20.908;2023-04-15T00:39:01;9.70;99.90
21163;DHT22;10739;52.198;20.908;2023-04-15T00:41:28;9.60;99.90
21163;DHT22;10739;52.198;20.908;2023-04-15T00:43:54;9.60;99.90
21163;DHT22;10739;52.198;20.908;2023-04-15T00:46:21;9.50;99.90
21163;DHT22;10739;52.198;20.908;2023-04-15T00:48:47;9.50;99.90
21163;DHT22;10739;52.198;20.908;2023-04-15T00:51:15;9.50;99.90
21163;DHT22;10739;52.198;20.908;2023-04-15T00:53:41;9.50;99.90
21163;DHT22;10739;52.198;20.908;2023-04-15T00:56:08;9.50;99.90
21163;DHT22;10739;52.198;20.908;2023-04-15T00:58:34;9.40;99.90
21163;DHT22;10739;52.198;20.908;2023-04-15T01:01:02;9.40;99.90
21163;DHT22;10739;52.198;20.908;2023-04-15T01:03:29;9.40;99.90
21163;DHT22;10739;52.198;20.908;2023-04-15T01:05:59;9.40;99.90
21163;DHT22;10739;52.198;20.908;2023-04-15T01:08:28;9.40;99.90
21163;DHT22;10739;52.198;20.908;2023-04-15T01:10:56;9.30;99.90
21163;DHT22;10739;52.198;20.908;2023-04-15T01:13:24;9.40;99.90
21163;DHT22;10739;52.198;20.908;2023-04-15T01:15:52;9.50;99.90
21163;DHT22;10739;52.198;20.908;2023-04-15T01:18:18;9.60;99.90
21163;DHT22;10739;52.198;20.908;2023-04-15T01:20:45;9.60;99.90
21163;DHT22;10739;52.198;20.908;2023-04-15T01:23:12;9.50;99.90
21163;DHT22;10739;52.198;20.908;2023-04-15T01:25:38;9.50;99.90
21163;DHT22;10739;52.198;20.908;2023-04-15T01:28:07;9.40;99.90
21163;DHT22;10739;52.198;20.908;2023-04-15T01:30:34;9.30;99.90
21163;DHT22;10739;52.198;20.908;2023-04-15T01:33:00;9.20;99.90
21163;DHT22;10739;52.198;20.908;2023-04-15T01:35:27;9.10;99.90
21163;DHT22;10739;52.198;20.908;2023-04-15T01:37:54;9.10;99.90
21163;DHT22;10739;52.198;20.908;2023-04-15T01:40:34;9.00;99.90
21163;DHT22;10739;52.198;20.908;2023-04-15T01:43:01;9.00;99.90
21163;DHT22;10739;52.198;20.908;2023-04-15T01:45:28;9.00;99.90
21163;DHT22;10739;52.198;20.908;2023-04-15T01:47:55;8.90;99.90
21163;DHT22;10739;52.198;20.908;2023-04-15T01:50:22;8.90;99.90
21163;DHT22;10739;52.198;20.908;2023-04-15T01:52:48;8.90;99.90
21163;DHT22;10739;52.198;20.908;2023-04-15T01:55:14;8.90;99.90
21163;DHT22;10739;52.198;20.908;2023-04-15T01:57:40;8.90;99.90
21163;DHT22;10739;52.198;20.908;2023-04-15T02:00:07;8.80;99.90
21163;DHT22;10739;52.198;20.908;2023-04-15T02:02:34;8.90;99.90
21163;DHT22;10739;52.198;20.908;2023-04-15T02:05:00;8.80;99.90
21163;DHT22;10739;52.198;20.908;2023-04-15T02:07:27;8.80;99.90
21163;DHT22;10739;52.198;20.908;2023-04-15T02:09:57;8.80;99.90
21163;DHT22;10739;52.198;20.908;2023-04-15T02:12:23;8.80;99.90
21163;DHT22;10739;52.198;20.908;2023-04-15T02:14:49;8.80;99.90
21163;DHT22;10739;52.198;20.908;2023-04-15T02:17:15;8.80;99.90
21163;DHT22;10739;52.198;20.908;2023-04-15T02:19:42;8.80;99.90
21163;DHT22;10739;52.198;20.908;2023-04-15T02:22:08;8.80;99.90
21163;DHT22;10739;52.198;20.908;2023-04-15T02:24:36;8.80;99.90
21163;DHT22;10739;52.198;20.908;2023-04-15T02:27:02;8.80;99.90
21163;DHT22;10739;52.198;20.908;2023-04-15T02:29:30;8.80;99.90
21163;DHT22;10739;52.198;20.908;2023-04-15T02:31:57;8.80;99.90
21163;DHT22;10739;52.198;20.908;2023-04-15T02:34:23;8.80;99.90
21163;DHT22;10739;52.198;20.908;2023-04-15T02:36:49;8.80;99.90
21163;DHT22;10739;52.198;20.908;2023-04-15T02:39:19;8.80;99.90
21163;DHT22;10739;52.198;20.908;2023-04-15T02:41:46;8.80;99.90
21163;DHT22;10739;52.198;20.908;2023-04-15T02:44:16;8.80;99.90
21163;DHT22;10739;52.198;20.908;2023-04-15T02:46:46;8.80;99.90
21163;DHT22;10739;52.198;20.908;2023-04-15T02:49:15;8.80;99.90
21163;DHT22;10739;52.198;20.908;2023-04-15T02:51:41;8.80;99.90
21163;DHT22;10739;52.198;20.908;2023-04-15T02:54:08;8.80;99.90
21163;DHT22;10739;52.198;20.908;2023-04-15T02:56:34;8.80;99.90
21163;DHT22;10739;52.198;20.908;2023-04-15T02:59:00;8.80;99.90
21163;DHT22;10739;52.198;20.908;2023-04-15T03:01:27;8.80;99.90
21163;DHT22;10739;52.198;20.908;2023-04-15T03:03:53;10.20;99.90
21163;DHT22;10739;52.198;20.908;2023-04-15T03:06:19;8.80;99.90
21163;DHT22;10739;52.198;20.908;2023-04-15T03:08:45;8.80;99.90
21163;DHT22;10739;52.198;20.908;2023-04-15T03:11:12;8.80;99.90
21163;DHT22;10739;52.198;20.908;2023-04-15T03:13:39;8.80;99.90
21163;DHT22;10739;52.198;20.908;2023-04-15T03:16:08;8.80;99.90
21163;DHT22;10739;52.198;20.908;2023-04-15T03:18:35;8.80;99.90
21163;DHT22;10739;52.198;20.908;2023-04-15T03:21:02;8.80;99.90
21163;DHT22;10739;52.198;20.908;2023-04-15T03:23:30;8.80;99.90
21163;DHT22;10739;52.198;20.908;2023-04-15T03:25:57;8.90;99.90
21163;DHT22;10739;52.198;20.908;2023-04-15T03:28:26;8.90;99.90
21163;DHT22;10739;52.198;20.908;2023-04-15T03:30:54;8.90;99.90
21163;DHT22;10739;52.198;20.908;2023-04-15T03:33:20;8.90;99.90
21163;DHT22;10739;52.198;20.908;2023-04-15T03:35:47;8.90;99.90
21163;DHT22;10739;52.198;20.908;2023-04-15T03:38:13;8.90;99.90
21163;DHT22;10739;52.198;20.908;2023-04-15T03:40:40;8.90;99.90
21163;DHT22;10739;52.198;20.908;2023-04-15T03:43:07;8.90;99.90
21163;DHT22;10739;52.198;20.908;2023-04-15T03:45:33;8.90;99.90
21163;DHT22;10739;52.198;20.908;2023-04-15T03:48:00;8.90;99.90
21163;DHT22;10739;52.198;20.908;2023-04-15T03:50:26;9.00;99.90
21163;DHT22;10739;52.198;20.908;2023-04-15T03:52:52;9.00;99.90
21163;DHT22;10739;52.198;20.908;2023-04-15T03:55:18;9.00;99.90
21163;DHT22;10739;52.198;20.908;2023-04-15T03:57:45;8.90;99.90
21163;DHT22;10739;52.198;20.908;2023-04-15T04:00:11;9.00;99.90
21163;DHT22;10739;52.198;20.908;2023-04-15T04:02:38;9.00;99.90
21163;DHT22;10739;52.198;20.908;2023-04-15T04:05:04;9.00;99.90
21163;DHT22;10739;52.198;20.908;2023-04-15T04:07:31;9.00;99.90
21163;DHT22;10739;52.198;20.908;2023-04-15T04:09:57;9.00;99.90
21163;DHT22;10739;52.198;20.908;2023-04-15T04:12:23;9.00;99.90
21163;DHT22;10739;52.198;20.908;2023-04-15T04:14:50;9.00;99.90
21163;DHT22;10739;52.198;20.908;2023-04-15T04:17:17;9.00;99.90
21163;DHT22;10739;52.198;20.908;2023-04-15T04:19:43;9.00;99.90
21163;DHT22;10739;52.198;20.908;2023-04-15T04:22:09;9.00;99.90
21163;DHT22;10739;52.198;20.908;2023-04-15T04:24:36;9.00;99.90
21163;DHT22;10739;52.198;20.908;2023-04-15T04:27:02;9.00;99.90
21163;DHT22;10739;52.198;20.908;2023-04-15T04:29:28;9.00;99.90
21163;DHT22;10739;52.198;20.908;2023-04-15T04:31:55;9.00;99.90
21163;DHT22;10739;52.198;20.908;2023-04-15T04:34:21;9.00;99.90
21163;DHT22;10739;52.198;20.908;2023-04-15T04:36:48;9.00;99.90
21163;DHT22;10739;52.198;20.908;2023-04-15T04:39:14;9.00;99.90
21163;DHT22;10739;52.198;20.908;2023-04-15T04:41:40;9.00;99.90
21163;DHT22;10739;52.198;20.908;2023-04-15T04:44:06;9.00;99.90
21163;DHT22;10739;52.198;20.908;2023-04-15T04:46:32;9.00;99.90
21163;DHT22;10739;52.198;20.908;2023-04-15T04:48:59;9.00;99.90
21163;DHT22;10739;52.198;20.908;2023-04-15T04:51:25;9.00;99.90
21163;DHT22;10739;52.198;20.908;2023-04-15T04:53:53;9.00;99.90
21163;DHT22;10739;52.198;20.908;2023-04-15T04:56:19;9.10;99.90
21163;DHT22;10739;52.198;20.908;2023-04-15T04:58:46;9.00;99.90
21163;DHT22;10739;52.198;20.908;2023-04-15T05:01:12;9.00;99.90
21163;DHT22;10739;52.198;20.908;2023-04-15T05:03:38;9.00;99.90
21163;DHT22;10739;52.198;20.908;2023-04-15T05:06:05;9.00;99.90
21163;DHT22;10739;52.198;20.908;2023-04-15T05:08:33;9.10;99.90
21163;DHT22;10739;52.198;20.908;2023-04-15T05:10:59;9.10;99.90
21163;DHT22;10739;52.198;20.908;2023-04-15T05:13:26;9.10;99.90
21163;DHT22;10739;52.198;20.908;2023-04-15T05:15:52;9.10;99.90
21163;DHT22;10739;52.198;20.908;2023-04-15T05:18:18;9.10;99.90
21163;DHT22;10739;52.198;20.908;2023-04-15T05:20:45;9.10;99.90
21163;DHT22;10739;52.198;20.908;2023-04-15T05:23:11;9.10;99.90
21163;DHT22;10739;52.198;20.908;2023-04-15T05:25:38;9.10;99.90
21163;DHT22;10739;52.198;20.908;2023-04-15T05:28:04;9.10;99.90
21163;DHT22;10739;52.198;20.908;2023-04-15T05:30:31;9.10;99.90
21163;DHT22;10739;52.198;20.908;2023-04-15T05:32:57;9.10;99.90
21163;DHT22;10739;52.198;20.908;2023-04-15T05:35:23;9.10;99.90
21163;DHT22;10739;52.198;20.908;2023-04-15T05:37:50;9.10;99.90
21163;DHT22;10739;52.198;20.908;2023-04-15T05:40:16;9.10;99.90
21163;DHT22;10739;52.198;20.908;2023-04-15T05:42:43;9.10;99.90
21163;DHT22;10739;52.198;20.908;2023-04-15T05:45:10;9.10;99.90
21163;DHT22;10739;52.198;20.908;2023-04-15T05:47:37;9.00;99.90
21163;DHT22;10739;52.198;20.908;2023-04-15T05:50:03;9.00;99.90
21163;DHT22;10739;52.198;20.908;2023-04-15T05:52:31;9.00;99.90
21163;DHT22;10739;52.198;20.908;2023-04-15T05:54:57;9.00;99.90
21163;DHT22;10739;52.198;20.908;2023-04-15T05:57:24;9.00;99.90
21163;DHT22;10739;52.198;20.908;2023-04-15T05:59:50;9.00;99.90
21163;DHT22;10739;52.198;20.908;2023-04-15T06:02:17;9.00;99.90
21163;DHT22;10739;52.198;20.908;2023-04-15T06:04:44;9.00;99.90
21163;DHT22;10739;52.198;20.908;2023-04-15T06:07:10;9.00;99.90
21163;DHT22;10739;52.198;20.908;2023-04-15T06:09:36;8.90;99.90
21163;DHT22;10739;52.198;20.908;2023-04-15T06:12:03;8.90;99.90
21163;DHT22;10739;52.198;20.908;2023-04-15T06:14:29;8.90;99.90
21163;DHT22;10739;52.198;20.908;2023-04-15T06:16:55;8.90;99.90
21163;DHT22;10739;52.198;20.908;2023-04-15T06:19:23;9.00;99.90
21163;DHT22;10739;52.198;20.908;2023-04-15T06:21:49;9.00;99.90
21163;DHT22;10739;52.198;20.908;2023-04-15T06:24:16;9.00;99.90
21163;DHT22;10739;52.198;20.908;2023-04-15T06:26:42;9.00;99.90
21163;DHT22;10739;52.198;20.908;2023-04-15T06:29:08;9.00;99.90
21163;DHT22;10739;52.198;20.908;2023-04-15T06:31:35;9.00;99.90
21163;DHT22;10739;52.198;20.908;2023-04-15T06:34:02;9.00;99.90
21163;DHT22;10739;52.198;20.908;2023-04-15T06:36:28;9.00;99.90
21163;DHT22;10739;52.198;20.908;2023-04-15T06:38:55;9.00;99.90
21163;DHT22;10739;52.198;20.908;2023-04-15T06:41:21;9.00;99.90
21163;DHT22;10739;52.198;20.908;2023-04-15T06:43:48;9.00;99.90
21163;DHT22;10739;52.198;20.908;2023-04-15T06:46:14;9.00;99.90
21163;DHT22;10739;52.198;20.908;2023-04-15T06:48:41;9.00;99.90
21163;DHT22;10739;52.198;20.908;2023-04-15T06:51:07;9.00;99.90
21163;DHT22;10739;52.198;20.908;2023-04-15T06:53:33;9.00;99.90
21163;DHT22;10739;52.198;20.908;2023-04-15T06:56:00;9.00;99.90
21163;DHT22;10739;52.198;20.908;2023-04-15T06:58:26;9.00;99.90
21163;DHT22;10739;52.198;20.908;2023-04-15T07:00:53;9.00;99.90
21163;DHT22;10739;52.198;20.908;2023-04-15T07:03:19;9.00;99.90
21163;DHT22;10739;52.198;20.908;2023-04-15T07:05:45;9.00;99.90
21163;DHT22;10739;52.198;20.908;2023-04-15T07:08:12;9.10;99.90
21163;DHT22;10739;52.198;20.908;2023-04-15T07:10:39;9.10;99.90
21163;DHT22;10739;52.198;20.908;2023-04-15T07:13:05;9.10;99.90
21163;DHT22;10739;52.198;20.908;2023-04-15T07:15:33;9.10;99.90
21163;DHT22;10739;52.198;20.908;2023-04-15T07:18:00;9.10;99.90
21163;DHT22;10739;52.198;20.908;2023-04-15T07:20:26;9.10;99.90
21163;DHT22;10739;52.198;20.908;2023-04-15T07:22:53;9.10;99.90
21163;DHT22;10739;52.198;20.908;2023-04-15T07:25:19;9.10;99.90
21163;DHT22;10739;52.198;20.908;2023-04-15T07:27:46;9.10;99.90
21163;DHT22;10739;52.198;20.908;2023-04-15T07:30:12;9.10;99.90
21163;DHT22;10739;52.198;20.908;2023-04-15T07:32:39;9.10;99.90
21163;DHT22;10739;52.198;20.908;2023-04-15T07:35:05;9.10;99.90
21163;DHT22;10739;52.198;20.908;2023-04-15T07:37:32;9.10;99.90
21163;DHT22;10739;52.198;20.908;2023-04-15T07:39:59;9.10;99.90
21163;DHT22;10739;52.198;20.908;2023-04-15T07:42:25;9.10;99.90
21163;DHT22;10739;52.198;20.908;2023-04-15T07:44:52;9.10;99.90
21163;DHT22;10739;52.198;20.908;2023-04-15T07:47:18;9.10;99.90
21163;DHT22;10739;52.198;20.908;2023-04-15T07:49:45;9.10;99.90
21163;DHT22;10739;52.198;20.908;2023-04-15T07:52:11;9.10;99.90
21163;DHT22;10739;52.198;20.908;2023-04-15T07:54:37;9.10;99.90
21163;DHT22;10739;52.198;20.908;2023-04-15T07:57:04;9.10;99.90
21163;DHT22;10739;52.198;20.908;2023-04-15T07:59:31;9.10;99.90
21163;DHT22;10739;52.198;20.908;2023-04-15T08:01:58;9.20;99.90
21163;DHT22;10739;52.198;20.908;2023-04-15T08:04:24;9.20;99.90
21163;DHT22;10739;52.198;20.908;2023-04-15T08:06:50;9.10;99.90
21163;DHT22;10739;52.198;20.908;2023-04-15T08:09:17;9.20;99.90
21163;DHT22;10739;52.198;20.908;2023-04-15T08:11:43;9.20;99.90
21163;DHT22;10739;52.198;20.908;2023-04-15T08:14:10;9.20;99.90
21163;DHT22;10739;52.198;20.908;2023-04-15T08:16:36;9.20;99.90
21163;DHT22;10739;52.198;20.908;2023-04-15T08:19:02;9.20;99.90
21163;DHT22;10739;52.198;20.908;2023-04-15T08:21:30;9.20;99.90
21163;DHT22;10739;52.198;20.908;2023-04-15T08:23:56;9.20;99.90
21163;DHT22;10739;52.198;20.908;2023-04-15T08:26:22;9.30;99.90
21163;DHT22;10739;52.198;20.908;2023-04-15T08:28:49;9.30;99.90
21163;DHT22;10739;52.198;20.908;2023-04-15T08:31:17;9.30;99.90
21163;DHT22;10739;52.198;20.908;2023-04-15T08:33:44;9.30;99.90
21163;DHT22;10739;52.198;20.908;2023-04-15T08:36:11;9.30;99.90
21163;DHT22;10739;52.198;20.908;2023-04-15T08:38:39;9.30;99.90
21163;DHT22;10739;52.198;20.908;2023-04-15T08:41:10;9.30;99.90
21163;DHT22;10739;52.198;20.908;2023-04-15T08:44:00;9.40;99.90
21163;DHT22;10739;52.198;20.908;2023-04-15T08:46:30;9.40;99.90
21163;DHT22;10739;52.198;20.908;2023-04-15T08:48:59;9.40;99.90
21163;DHT22;10739;52.198;20.908;2023-04-15T08:51:30;9.50;99.90
21163;DHT22;10739;52.198;20.908;2023-04-15T08:53:57;9.50;99.90
21163;DHT22;10739;52.198;20.908;2023-04-15T08:56:25;9.50;99.90
21163;DHT22;10739;52.198;20.908;2023-04-15T08:58:52;9.50;99.90
21163;DHT22;10739;52.198;20.908;2023-04-15T09:01:19;9.50;99.90
21163;DHT22;10739;52.198;20.908;2023-04-15T09:03:48;9.60;99.90
21163;DHT22;10739;52.198;20.908;2023-04-15T09:06:18;9.60;99.90
21163;DHT22;10739;52.198;20.908;2023-04-15T09:08:46;9.60;99.90
21163;DHT22;10739;52.198;20.908;2023-04-15T09:11:13;9.70;99.90
21163;DHT22;10739;52.198;20.908;2023-04-15T09:13:40;9.70;99.90
21163;DHT22;10739;52.198;20.908;2023-04-15T09:16:06;9.80;99.90
21163;DHT22;10739;52.198;20.908;2023-04-15T09:18:34;9.80;99.90
21163;DHT22;10739;52.198;20.908;2023-04-15T09:21:27;9.80;99.90
21163;DHT22;10739;52.198;20.908;2023-04-15T09:23:59;9.80;99.90
21163;DHT22;10739;52.198;20.908;2023-04-15T09:26:34;9.80;99.90
21163;DHT22;10739;52.198;20.908;2023-04-15T09:29:04;9.80;99.90
21163;DHT22;10739;52.198;20.908;2023-04-15T09:31:31;9.80;99.90
21163;DHT22;10739;52.198;20.908;2023-04-15T09:33:58;9.80;99.90
21163;DHT22;10739;52.198;20.908;2023-04-15T09:36:24;9.80;99.90
21163;DHT22;10739;52.198;20.908;2023-04-15T09:38:58;9.80;99.90
21163;DHT22;10739;52.198;20.908;2023-04-15T09:41:26;9.90;99.90
21163;DHT22;10739;52.198;20.908;2023-04-15T09:43:53;9.90;99.90
21163;DHT22;10739;52.198;20.908;2023-04-15T09:46:19;9.90;99.90
21163;DHT22;10739;52.198;20.908;2023-04-15T09:48:46;9.90;99.90
21163;DHT22;10739;52.198;20.908;2023-04-15T09:51:37;9.80;99.90
21163;DHT22;10739;52.198;20.908;2023-04-15T09:54:04;9.80;99.90
21163;DHT22;10739;52.198;20.908;2023-04-15T09:56:34;9.90;99.90
21163;DHT22;10739;52.198;20.908;2023-04-15T09:59:04;9.80;99.90
21163;DHT22;10739;52.198;20.908;2023-04-15T10:01:31;9.90;99.90
21163;DHT22;10739;52.198;20.908;2023-04-15T10:03:58;9.90;99.90
21163;DHT22;10739;52.198;20.908;2023-04-15T10:06:29;9.90;99.90
21163;DHT22;10739;52.198;20.908;2023-04-15T10:08:59;10.00;99.90
21163;DHT22;10739;52.198;20.908;2023-04-15T10:11:30;10.00;99.90
21163;DHT22;10739;52.198;20.908;2023-04-15T10:13:57;10.10;99.90
21163;DHT22;10739;52.198;20.908;2023-04-15T10:16:26;10.10;99.90
21163;DHT22;10739;52.198;20.908;2023-04-15T10:18:55;10.10;99.90
21163;DHT22;10739;52.198;20.908;2023-04-15T10:21:23;10.20;99.90
21163;DHT22;10739;52.198;20.908;2023-04-15T10:23:50;10.20;99.90
21163;DHT22;10739;52.198;20.908;2023-04-15T10:26:17;10.20;99.90
21163;DHT22;10739;52.198;20.908;2023-04-15T10:28:44;10.20;99.90
21163;DHT22;10739;52.198;20.908;2023-04-15T10:31:12;10.30;99.90
21163;DHT22;10739;52.198;20.908;2023-04-15T10:33:42;10.20;99.90
21163;DHT22;10739;52.198;20.908;2023-04-15T10:36:09;10.30;99.90
21163;DHT22;10739;52.198;20.908;2023-04-15T10:38:43;10.30;99.90
21163;DHT22;10739;52.198;20.908;2023-04-15T10:41:18;10.30;99.90
21163;DHT22;10739;52.198;20.908;2023-04-15T10:43:53;10.30;99.90
21163;DHT22;10739;52.198;20.908;2023-04-15T10:46:39;10.20;99.90
21163;DHT22;10739;52.198;20.908;2023-04-15T10:49:16;10.20;99.90
21163;DHT22;10739;52.198;20.908;2023-04-15T10:52:02;10.20;99.90
21163;DHT22;10739;52.198;20.908;2023-04-15T10:59:31;10.30;99.90
21163;DHT22;10739;52.198;20.908;2023-04-15T11:02:21;10.40;99.90
21163;DHT22;10739;52.198;20.908;2023-04-15T11:05:06;10.50;99.90
21163;DHT22;10739;52.198;20.908;2023-04-15T11:13:01;10.70;99.90
21163;DHT22;10739;52.198;20.908;2023-04-15T11:15:55;10.80;99.90
21163;DHT22;10739;52.198;20.908;2023-04-15T11:18:33;10.80;99.90
21163;DHT22;10739;52.198;20.908;2023-04-15T11:21:02;10.80;99.90
21163;DHT22;10739;52.198;20.908;2023-04-15T11:26:02;10.70;99.90
21163;DHT22;10739;52.198;20.908;2023-04-15T11:28:44;10.60;99.90
21163;DHT22;10739;52.198;20.908;2023-04-15T11:31:17;10.50;99.90
21163;DHT22;10739;52.198;20.908;2023-04-15T11:33:56;9.80;99.90
21163;DHT22;10739;52.198;20.908;2023-04-15T11:36:28;10.40;99.90
21163;DHT22;10739;52.198;20.908;2023-04-15T11:38:58;10.40;99.90
21163;DHT22;10739;52.198;20.908;2023-04-15T11:41:24;10.40;99.90
21163;DHT22;10739;52.198;20.908;2023-04-15T11:43:51;10.50;99.90
21163;DHT22;10739;52.198;20.908;2023-04-15T11:46:17;10.50;99.90
21163;DHT22;10739;52.198;20.908;2023-04-15T11:48:45;10.60;99.90
21163;DHT22;10739;52.198;20.908;2023-04-15T11:51:12;10.60;99.90
21163;DHT22;10739;52.198;20.908;2023-04-15T11:53:42;10.70;99.90
21163;DHT22;10739;52.198;20.908;2023-04-15T11:56:17;10.80;99.90
21163;DHT22;10739;52.198;20.908;2023-04-15T11:58:43;11.00;99.90
21163;DHT22;10739;52.198;20.908;2023-04-15T12:01:11;11.10;99.90
21163;DHT22;10739;52.198;20.908;2023-04-15T12:03:39;11.30;99.90
21163;DHT22;10739;52.198;20.908;2023-04-15T12:06:18;11.40;99.90
21163;DHT22;10739;52.198;20.908;2023-04-15T12:11:39;11.40;99.90
21163;DHT22;10739;52.198;20.908;2023-04-15T12:14:11;11.30;99.90
21163;DHT22;10739;52.198;20.908;2023-04-15T12:16:47;11.30;99.90
21163;DHT22;10739;52.198;20.908;2023-04-15T12:19:25;11.10;99.90
21163;DHT22;10739;52.198;20.908;2023-04-15T12:22:00;11.10;99.90
21163;DHT22;10739;52.198;20.908;2023-04-15T12:24:31;11.00;99.90
21163;DHT22;10739;52.198;20.908;2023-04-15T12:27:06;11.00;99.90
21163;DHT22;10739;52.198;20.908;2023-04-15T12:29:38;10.90;99.90
21163;DHT22;10739;52.198;20.908;2023-04-15T12:32:10;10.90;99.90
21163;DHT22;10739;52.198;20.908;2023-04-15T12:34:38;10.90;99.90
21163;DHT22;10739;52.198;20.908;2023-04-15T12:37:11;10.80;99.90
21163;DHT22;10739;52.198;20.908;2023-04-15T12:39:42;10.80;99.90
21163;DHT22;10739;52.198;20.908;2023-04-15T12:42:10;10.80;99.90
21163;DHT22;10739;52.198;20.908;2023-04-15T12:44:38;10.90;99.90
21163;DHT22;10739;52.198;20.908;2023-04-15T12:47:06;11.00;99.90
21163;DHT22;10739;52.198;20.908;2023-04-15T12:49:33;11.10;99.90
21163;DHT22;10739;52.198;20.908;2023-04-15T12:52:01;11.20;99.90
21163;DHT22;10739;52.198;20.908;2023-04-15T12:54:28;11.30;99.90
21163;DHT22;10739;52.198;20.908;2023-04-15T12:56:56;11.60;99.90
21163;DHT22;10739;52.198;20.908;2023-04-15T12:59:23;11.80;99.90
21163;DHT22;10739;52.198;20.908;2023-04-15T13:01:50;11.90;99.90
21163;DHT22;10739;52.198;20.908;2023-04-15T13:04:18;12.00;99.90
21163;DHT22;10739;52.198;20.908;2023-04-15T13:06:45;12.10;99.90
21163;DHT22;10739;52.198;20.908;2023-04-15T13:09:11;12.10;99.90
21163;DHT22;10739;52.198;20.908;2023-04-15T13:11:38;12.10;99.90
21163;DHT22;10739;52.198;20.908;2023-04-15T13:14:06;12.10;99.90
21163;DHT22;10739;52.198;20.908;2023-04-15T13:16:34;12.20;99.90
21163;DHT22;10739;52.198;20.908;2023-04-15T13:19:01;12.40;99.90
21163;DHT22;10739;52.198;20.908;2023-04-15T13:21:29;12.40;99.90
21163;DHT22;10739;52.198;20.908;2023-04-15T13:24:00;12.40;99.90
21163;DHT22;10739;52.198;20.908;2023-04-15T13:26:26;12.50;99.90
21163;DHT22;10739;52.198;20.908;2023-04-15T13:28:53;12.30;99.90
21163;DHT22;10739;52.198;20.908;2023-04-15T13:31:19;12.20;99.90
21163;DHT22;10739;52.198;20.908;2023-04-15T13:33:46;12.10;99.90
21163;DHT22;10739;52.198;20.908;2023-04-15T13:36:13;12.00;99.90
21163;DHT22;10739;52.198;20.908;2023-04-15T13:38:39;11.70;99.90
21163;DHT22;10739;52.198;20.908;2023-04-15T13:41:05;11.70;99.90
21163;DHT22;10739;52.198;20.908;2023-04-15T13:43:31;11.80;99.90
21163;DHT22;10739;52.198;20.908;2023-04-15T13:45:59;11.80;99.90
21163;DHT22;10739;52.198;20.908;2023-04-15T13:48:25;11.90;99.90
21163;DHT22;10739;52.198;20.908;2023-04-15T13:50:51;11.90;99.90
21163;DHT22;10739;52.198;20.908;2023-04-15T13:53:18;12.00;99.90
21163;DHT22;10739;52.198;20.908;2023-04-15T13:55:44;12.00;99.90
21163;DHT22;10739;52.198;20.908;2023-04-15T13:58:10;12.10;99.90
21163;DHT22;10739;52.198;20.908;2023-04-15T14:00:37;12.10;99.90
21163;DHT22;10739;52.198;20.908;2023-04-15T14:03:03;12.10;99.90
21163;DHT22;10739;52.198;20.908;2023-04-15T14:05:30;12.00;99.90
21163;DHT22;10739;52.198;20.908;2023-04-15T14:07:58;11.60;99.90
21163;DHT22;10739;52.198;20.908;2023-04-15T14:10:25;11.40;99.90
21163;DHT22;10739;52.198;20.908;2023-04-15T14:12:51;11.40;99.90
21163;DHT22;10739;52.198;20.908;2023-04-15T14:15:17;11.40;99.90
21163;DHT22;10739;52.198;20.908;2023-04-15T14:17:44;11.30;99.90
21163;DHT22;10739;52.198;20.908;2023-04-15T14:20:10;11.80;99.90
21163;DHT22;10739;52.198;20.908;2023-04-15T14:22:37;11.60;99.90
21163;DHT22;10739;52.198;20.908;2023-04-15T14:25:04;11.70;99.90
21163;DHT22;10739;52.198;20.908;2023-04-15T14:27:31;11.70;99.90
21163;DHT22;10739;52.198;20.908;2023-04-15T14:29:57;11.80;99.90
21163;DHT22;10739;52.198;20.908;2023-04-15T14:32:24;12.00;99.90
21163;DHT22;10739;52.198;20.908;2023-04-15T14:34:51;11.90;99.90
21163;DHT22;10739;52.198;20.908;2023-04-15T14:37:18;12.00;99.90
21163;DHT22;10739;52.198;20.908;2023-04-15T14:39:44;12.10;99.90
21163;DHT22;10739;52.198;20.908;2023-04-15T14:42:10;12.20;99.90
21163;DHT22;10739;52.198;20.908;2023-04-15T14:44:36;12.20;99.90
21163;DHT22;10739;52.198;20.908;2023-04-15T14:47:03;12.00;99.90
21163;DHT22;10739;52.198;20.908;2023-04-15T14:49:29;11.80;99.90
21163;DHT22;10739;52.198;20.908;2023-04-15T14:51:56;11.70;99.90
21163;DHT22;10739;52.198;20.908;2023-04-15T14:54:22;11.60;99.90
21163;DHT22;10739;52.198;20.908;2023-04-15T14:56:49;11.60;99.90
21163;DHT22;10739;52.198;20.908;2023-04-15T14:59:15;11.70;99.90
21163;DHT22;10739;52.198;20.908;2023-04-15T15:01:42;11.80;99.90
21163;DHT22;10739;52.198;20.908;2023-04-15T15:04:09;11.80;99.90
21163;DHT22;10739;52.198;20.908;2023-04-15T15:06:36;11.80;99.90
21163;DHT22;10739;52.198;20.908;2023-04-15T15:09:02;11.80;99.90
21163;DHT22;10739;52.198;20.908;2023-04-15T15:11:29;11.80;99.90
21163;DHT22;10739;52.198;20.908;2023-04-15T15:13:55;11.90;99.90
21163;DHT22;10739;52.198;20.908;2023-04-15T15:16:21;12.00;99.90
21163;DHT22;10739;52.198;20.908;2023-04-15T15:18:49;11.90;99.90
21163;DHT22;10739;52.198;20.908;2023-04-15T15:21:16;12.00;99.90
21163;DHT22;10739;52.198;20.908;2023-04-15T15:23:46;12.10;99.90
21163;DHT22;10739;52.198;20.908;2023-04-15T15:26:20;12.00;99.90
21163;DHT22;10739;52.198;20.908;2023-04-15T15:28:46;12.00;99.90
21163;DHT22;10739;52.198;20.908;2023-04-15T15:31:15;12.00;99.90
21163;DHT22;10739;52.198;20.908;2023-04-15T15:33:41;12.00;99.90
21163;DHT22;10739;52.198;20.908;2023-04-15T15:36:09;11.90;99.90
21163;DHT22;10739;52.198;20.908;2023-04-15T15:38:36;11.90;99.90
21163;DHT22;10739;52.198;20.908;2023-04-15T15:41:02;11.90;99.90
21163;DHT22;10739;52.198;20.908;2023-04-15T15:43:29;11.80;99.90
21163;DHT22;10739;52.198;20.908;2023-04-15T15:45:55;11.70;99.90